sensor_id;sensor_type;location;lat;lon;timestamp;pressure;altitude;pressure_sealevel;temperature;humidity
74336;BME280;62755;-33.398;-70.572;2023-05-07T00:00:39;93212.31;;;16.27;55.26
74336;BME280;62755;-33.398;-70.572;2023-05-07T00:03:31;93216.69;;;16.34;55.02
74336;BME280;62755;-33.398;-70.572;2023-05-07T00:06:20;93218.84;;;16.39;54.87
74336;BME280;62755;-33.398;-70.572;2023-05-07T00:09:10;93215.34;;;16.29;54.92
74336;BME280;62755;-33.398;-70.572;2023-05-07T00:11:59;93220.44;;;16.49;54.77
74336;BME280;62755;-33.398;-70.572;2023-05-07T00:14:50;93220.75;;;16.51;54.58
74336;BME280;62755;-33.398;-70.572;2023-05-07T00:17:40;93218.53;;;16.37;55.35
74336;BME280;62755;-33.398;-70.572;2023-05-07T00:20:31;93220.19;;;16.43;54.68
74336;BME280;62755;-33.398;-70.572;2023-05-07T00:23:21;93225.72;;;16.61;54.91
74336;BME280;62755;-33.398;-70.572;2023-05-07T00:26:10;93225.19;;;16.76;54.34
74336;BME280;62755;-33.398;-70.572;2023-05-07T00:29:00;93219.91;;;16.72;54.63
74336;BME280;62755;-33.398;-70.572;2023-05-07T00:31:50;93219.84;;;16.54;55.03
74336;BME280;62755;-33.398;-70.572;2023-05-07T00:34:40;93213.97;;;16.25;55.61
74336;BME280;62755;-33.398;-70.572;2023-05-07T00:37:32;93226.69;;;15.94;56.11
74336;BME280;62755;-33.398;-70.572;2023-05-07T00:40:21;93230.03;;;15.98;55.99
74336;BME280;62755;-33.398;-70.572;2023-05-07T00:43:11;93213.88;;;15.85;56.25
74336;BME280;62755;-33.398;-70.572;2023-05-07T00:46:00;93233.25;;;15.83;56.59
74336;BME280;62755;-33.398;-70.572;2023-05-07T00:48:50;93228.59;;;15.62;56.90
74336;BME280;62755;-33.398;-70.572;2023-05-07T00:51:40;93235.63;;;15.81;56.68
74336;BME280;62755;-33.398;-70.572;2023-05-07T00:54:31;93243.41;;;15.79;56.95
74336;BME280;62755;-33.398;-70.572;2023-05-07T00:57:22;93245.69;;;15.81;56.81
74336;BME280;62755;-33.398;-70.572;2023-05-07T01:00:13;93229.00;;;15.61;56.78
74336;BME280;62755;-33.398;-70.572;2023-05-07T01:03:03;93240.00;;;15.66;57.36
74336;BME280;62755;-33.398;-70.572;2023-05-07T01:05:55;93245.19;;;15.73;56.99
74336;BME280;62755;-33.398;-70.572;2023-05-07T01:08:46;93243.75;;;15.81;56.37
74336;BME280;62755;-33.398;-70.572;2023-05-07T01:11:39;93244.88;;;15.71;56.22
74336;BME280;62755;-33.398;-70.572;2023-05-07T01:14:29;93246.88;;;15.80;56.37
74336;BME280;62755;-33.398;-70.572;2023-05-07T01:17:20;93250.97;;;15.84;56.31
74336;BME280;62755;-33.398;-70.572;2023-05-07T01:20:10;93242.53;;;16.04;56.06
74336;BME280;62755;-33.398;-70.572;2023-05-07T01:23:03;93250.72;;;16.13;55.67
74336;BME280;62755;-33.398;-70.572;2023-05-07T01:25:54;93234.59;;;16.10;55.21
74336;BME280;62755;-33.398;-70.572;2023-05-07T01:28:44;93247.84;;;16.08;55.79
74336;BME280;62755;-33.398;-70.572;2023-05-07T01:31:34;93246.81;;;16.14;55.61
74336;BME280;62755;-33.398;-70.572;2023-05-07T01:34:24;93236.44;;;16.13;55.18
74336;BME280;62755;-33.398;-70.572;2023-05-07T01:37:15;93235.38;;;15.89;56.09
74336;BME280;62755;-33.398;-70.572;2023-05-07T01:40:07;93232.47;;;15.61;55.99
74336;BME280;62755;-33.398;-70.572;2023-05-07T01:42:57;93237.94;;;15.36;56.64
74336;BME280;62755;-33.398;-70.572;2023-05-07T01:45:46;93231.97;;;15.07;56.64
74336;BME280;62755;-33.398;-70.572;2023-05-07T01:48:36;93237.75;;;15.18;56.47
74336;BME280;62755;-33.398;-70.572;2023-05-07T01:51:26;93250.72;;;15.23;56.18
74336;BME280;62755;-33.398;-70.572;2023-05-07T01:54:15;93243.34;;;15.36;55.80
74336;BME280;62755;-33.398;-70.572;2023-05-07T01:57:07;93241.72;;;15.39;55.81
74336;BME280;62755;-33.398;-70.572;2023-05-07T01:59:57;93210.50;;;15.25;55.31
74336;BME280;62755;-33.398;-70.572;2023-05-07T02:02:47;93235.03;;;15.31;56.09
74336;BME280;62755;-33.398;-70.572;2023-05-07T02:05:36;93246.72;;;15.28;56.07
74336;BME280;62755;-33.398;-70.572;2023-05-07T02:08:25;93249.22;;;15.22;56.34
74336;BME280;62755;-33.398;-70.572;2023-05-07T02:11:15;93255.25;;;15.26;56.36
74336;BME280;62755;-33.398;-70.572;2023-05-07T02:14:06;93251.44;;;15.36;55.80
74336;BME280;62755;-33.398;-70.572;2023-05-07T02:16:55;93248.41;;;15.47;56.00
74336;BME280;62755;-33.398;-70.572;2023-05-07T02:19:45;93258.78;;;15.36;56.28
74336;BME280;62755;-33.398;-70.572;2023-05-07T02:22:34;93255.50;;;15.19;57.00
74336;BME280;62755;-33.398;-70.572;2023-05-07T02:25:23;93257.47;;;14.81;58.45
74336;BME280;62755;-33.398;-70.572;2023-05-07T02:28:13;93263.31;;;14.67;58.98
74336;BME280;62755;-33.398;-70.572;2023-05-07T02:31:05;93257.38;;;14.34;60.29
74336;BME280;62755;-33.398;-70.572;2023-05-07T02:33:54;93267.75;;;14.20;61.40
74336;BME280;62755;-33.398;-70.572;2023-05-07T02:36:43;93269.28;;;14.21;61.12
74336;BME280;62755;-33.398;-70.572;2023-05-07T02:39:33;93252.56;;;14.13;60.90
74336;BME280;62755;-33.398;-70.572;2023-05-07T02:42:22;93270.00;;;14.50;60.20
74336;BME280;62755;-33.398;-70.572;2023-05-07T02:45:12;93276.47;;;14.65;59.83
74336;BME280;62755;-33.398;-70.572;2023-05-07T02:48:03;93290.09;;;14.74;59.58
74336;BME280;62755;-33.398;-70.572;2023-05-07T02:50:53;93285.13;;;14.60;59.92
74336;BME280;62755;-33.398;-70.572;2023-05-07T02:53:42;93282.97;;;14.67;59.50
74336;BME280;62755;-33.398;-70.572;2023-05-07T02:56:31;93286.75;;;14.70;59.40
74336;BME280;62755;-33.398;-70.572;2023-05-07T02:59:21;93287.47;;;14.45;59.95
74336;BME280;62755;-33.398;-70.572;2023-05-07T03:02:10;93283.28;;;14.82;58.99
74336;BME280;62755;-33.398;-70.572;2023-05-07T03:05:01;93276.25;;;14.97;58.60
74336;BME280;62755;-33.398;-70.572;2023-05-07T03:07:51;93274.00;;;14.83;58.70
74336;BME280;62755;-33.398;-70.572;2023-05-07T03:10:40;93281.44;;;15.04;58.70
74336;BME280;62755;-33.398;-70.572;2023-05-07T03:13:30;93275.19;;;14.57;59.68
74336;BME280;62755;-33.398;-70.572;2023-05-07T03:16:19;93284.56;;;14.65;59.84
74336;BME280;62755;-33.398;-70.572;2023-05-07T03:19:08;93281.03;;;14.68;59.69
74336;BME280;62755;-33.398;-70.572;2023-05-07T03:21:59;93284.59;;;14.52;60.22
74336;BME280;62755;-33.398;-70.572;2023-05-07T03:24:49;93297.66;;;14.54;60.26
74336;BME280;62755;-33.398;-70.572;2023-05-07T03:27:38;93296.78;;;14.57;59.67
74336;BME280;62755;-33.398;-70.572;2023-05-07T03:30:28;93298.94;;;14.62;59.61
74336;BME280;62755;-33.398;-70.572;2023-05-07T03:33:18;93299.50;;;14.69;59.02
74336;BME280;62755;-33.398;-70.572;2023-05-07T03:36:07;93307.81;;;14.87;58.41
74336;BME280;62755;-33.398;-70.572;2023-05-07T03:38:59;93297.66;;;14.79;59.04
74336;BME280;62755;-33.398;-70.572;2023-05-07T03:41:48;93311.03;;;14.95;58.46
74336;BME280;62755;-33.398;-70.572;2023-05-07T03:44:37;93303.38;;;14.81;58.59
74336;BME280;62755;-33.398;-70.572;2023-05-07T03:47:27;93317.28;;;14.92;58.13
74336;BME280;62755;-33.398;-70.572;2023-05-07T03:50:16;93322.03;;;14.88;57.76
74336;BME280;62755;-33.398;-70.572;2023-05-07T03:53:06;93319.47;;;14.97;57.51
74336;BME280;62755;-33.398;-70.572;2023-05-07T03:55:57;93315.78;;;15.16;57.52
74336;BME280;62755;-33.398;-70.572;2023-05-07T03:58:47;93315.97;;;15.34;56.94
74336;BME280;62755;-33.398;-70.572;2023-05-07T04:01:37;93309.53;;;14.94;57.04
74336;BME280;62755;-33.398;-70.572;2023-05-07T04:04:26;93303.69;;;15.08;57.25
74336;BME280;62755;-33.398;-70.572;2023-05-07T04:07:19;93289.53;;;15.17;56.96
74336;BME280;62755;-33.398;-70.572;2023-05-07T04:10:09;93292.22;;;15.04;56.32
74336;BME280;62755;-33.398;-70.572;2023-05-07T04:13:02;93278.19;;;14.84;56.73
74336;BME280;62755;-33.398;-70.572;2023-05-07T04:15:51;93271.41;;;14.67;55.44
74336;BME280;62755;-33.398;-70.572;2023-05-07T04:18:41;93272.06;;;14.58;54.70
74336;BME280;62755;-33.398;-70.572;2023-05-07T04:21:30;93257.91;;;14.42;54.39
74336;BME280;62755;-33.398;-70.572;2023-05-07T04:24:19;93263.53;;;14.35;54.58
74336;BME280;62755;-33.398;-70.572;2023-05-07T04:27:09;93261.34;;;14.30;54.87
74336;BME280;62755;-33.398;-70.572;2023-05-07T04:30:00;93244.38;;;14.17;54.46
74336;BME280;62755;-33.398;-70.572;2023-05-07T04:32:50;93231.53;;;14.21;53.99
74336;BME280;62755;-33.398;-70.572;2023-05-07T04:35:39;93222.13;;;14.25;54.48
74336;BME280;62755;-33.398;-70.572;2023-05-07T04:38:28;93219.16;;;14.61;53.32
74336;BME280;62755;-33.398;-70.572;2023-05-07T04:41:18;93216.00;;;14.75;52.71
74336;BME280;62755;-33.398;-70.572;2023-05-07T04:44:07;93226.38;;;14.89;51.76
74336;BME280;62755;-33.398;-70.572;2023-05-07T04:46:59;93199.84;;;14.50;50.74
74336;BME280;62755;-33.398;-70.572;2023-05-07T04:49:48;93235.88;;;14.31;54.06
74336;BME280;62755;-33.398;-70.572;2023-05-07T04:52:38;93231.69;;;13.88;55.42
74336;BME280;62755;-33.398;-70.572;2023-05-07T04:55:27;93238.59;;;13.89;55.35
74336;BME280;62755;-33.398;-70.572;2023-05-07T04:58:16;93222.38;;;13.77;57.87
74336;BME280;62755;-33.398;-70.572;2023-05-07T05:01:06;93232.44;;;13.89;58.56
74336;BME280;62755;-33.398;-70.572;2023-05-07T05:03:57;93209.84;;;13.70;59.07
74336;BME280;62755;-33.398;-70.572;2023-05-07T05:06:46;93237.06;;;13.88;59.90
74336;BME280;62755;-33.398;-70.572;2023-05-07T05:09:36;93248.91;;;13.78;60.21
74336;BME280;62755;-33.398;-70.572;2023-05-07T05:12:25;93246.34;;;13.87;59.08
74336;BME280;62755;-33.398;-70.572;2023-05-07T05:15:15;93221.00;;;13.85;58.11
74336;BME280;62755;-33.398;-70.572;2023-05-07T05:18:04;93242.22;;;14.24;57.79
74336;BME280;62755;-33.398;-70.572;2023-05-07T05:20:55;93251.19;;;14.34;57.52
74336;BME280;62755;-33.398;-70.572;2023-05-07T05:23:44;93256.53;;;14.08;57.86
74336;BME280;62755;-33.398;-70.572;2023-05-07T05:26:34;93249.44;;;14.15;57.73
74336;BME280;62755;-33.398;-70.572;2023-05-07T05:29:23;93248.44;;;14.08;56.83
74336;BME280;62755;-33.398;-70.572;2023-05-07T05:32:13;93229.31;;;13.90;56.77
74336;BME280;62755;-33.398;-70.572;2023-05-07T05:35:02;93257.84;;;14.17;56.65
74336;BME280;62755;-33.398;-70.572;2023-05-07T05:37:53;93255.09;;;14.33;55.78
74336;BME280;62755;-33.398;-70.572;2023-05-07T05:40:43;93261.59;;;14.48;55.38
74336;BME280;62755;-33.398;-70.572;2023-05-07T05:43:32;93270.19;;;14.43;55.45
74336;BME280;62755;-33.398;-70.572;2023-05-07T05:46:21;93261.34;;;14.30;55.53
74336;BME280;62755;-33.398;-70.572;2023-05-07T05:49:11;93270.53;;;14.45;55.02
74336;BME280;62755;-33.398;-70.572;2023-05-07T05:52:00;93262.09;;;14.30;54.98
74336;BME280;62755;-33.398;-70.572;2023-05-07T05:54:51;93274.53;;;14.11;54.74
74336;BME280;62755;-33.398;-70.572;2023-05-07T05:57:41;93271.06;;;13.98;55.44
74336;BME280;62755;-33.398;-70.572;2023-05-07T06:00:30;93272.13;;;13.88;56.30
74336;BME280;62755;-33.398;-70.572;2023-05-07T06:03:20;93263.19;;;13.91;56.03
74336;BME280;62755;-33.398;-70.572;2023-05-07T06:06:09;93261.44;;;13.97;54.62
74336;BME280;62755;-33.398;-70.572;2023-05-07T06:08:58;93257.59;;;13.98;53.65
74336;BME280;62755;-33.398;-70.572;2023-05-07T06:11:50;93254.84;;;13.86;54.01
74336;BME280;62755;-33.398;-70.572;2023-05-07T06:14:39;93251.53;;;13.94;54.74
74336;BME280;62755;-33.398;-70.572;2023-05-07T06:17:29;93245.94;;;14.01;56.84
74336;BME280;62755;-33.398;-70.572;2023-05-07T06:20:18;93238.59;;;13.89;58.48
74336;BME280;62755;-33.398;-70.572;2023-05-07T06:23:08;93231.97;;;13.78;57.01
74336;BME280;62755;-33.398;-70.572;2023-05-07T06:25:57;93244.09;;;13.57;55.92
74336;BME280;62755;-33.398;-70.572;2023-05-07T06:28:48;93256.66;;;13.76;55.70
74336;BME280;62755;-33.398;-70.572;2023-05-07T06:31:37;93259.50;;;13.85;55.29
74336;BME280;62755;-33.398;-70.572;2023-05-07T06:34:27;93261.22;;;13.79;54.32
74336;BME280;62755;-33.398;-70.572;2023-05-07T06:37:16;93249.47;;;13.57;54.71
74336;BME280;62755;-33.398;-70.572;2023-05-07T06:40:07;93255.31;;;13.68;54.92
74336;BME280;62755;-33.398;-70.572;2023-05-07T06:42:56;93250.44;;;13.79;54.70
74336;BME280;62755;-33.398;-70.572;2023-05-07T06:45:47;93248.13;;;14.06;53.60
74336;BME280;62755;-33.398;-70.572;2023-05-07T06:48:36;93244.81;;;14.15;53.17
74336;BME280;62755;-33.398;-70.572;2023-05-07T06:51:26;93242.47;;;13.88;52.88
74336;BME280;62755;-33.398;-70.572;2023-05-07T06:54:15;93246.81;;;13.98;52.96
74336;BME280;62755;-33.398;-70.572;2023-05-07T06:57:05;93250.66;;;13.97;52.86
74336;BME280;62755;-33.398;-70.572;2023-05-07T06:59:54;93246.16;;;13.94;52.46
74336;BME280;62755;-33.398;-70.572;2023-05-07T07:02:46;93258.75;;;13.85;52.64
74336;BME280;62755;-33.398;-70.572;2023-05-07T07:05:36;93241.28;;;13.89;52.02
74336;BME280;62755;-33.398;-70.572;2023-05-07T07:08:25;93241.38;;;13.86;52.36
74336;BME280;62755;-33.398;-70.572;2023-05-07T07:11:16;93249.75;;;13.75;51.86
74336;BME280;62755;-33.398;-70.572;2023-05-07T07:14:05;93244.66;;;13.93;51.87
74336;BME280;62755;-33.398;-70.572;2023-05-07T07:16:55;93242.72;;;14.06;51.31
74336;BME280;62755;-33.398;-70.572;2023-05-07T07:19:46;93244.88;;;14.11;51.26
74336;BME280;62755;-33.398;-70.572;2023-05-07T07:22:35;93238.09;;;14.07;50.88
74336;BME280;62755;-33.398;-70.572;2023-05-07T07:25:25;93238.19;;;14.03;51.17
74336;BME280;62755;-33.398;-70.572;2023-05-07T07:28:14;93231.22;;;14.19;51.27
74336;BME280;62755;-33.398;-70.572;2023-05-07T07:31:04;93240.78;;;14.20;51.28
74336;BME280;62755;-33.398;-70.572;2023-05-07T07:33:53;93247.16;;;14.26;50.25
74336;BME280;62755;-33.398;-70.572;2023-05-07T07:36:44;93241.84;;;14.38;50.65
74336;BME280;62755;-33.398;-70.572;2023-05-07T07:39:34;93237.91;;;14.27;50.20
74336;BME280;62755;-33.398;-70.572;2023-05-07T07:42:24;93252.25;;;14.24;50.95
74336;BME280;62755;-33.398;-70.572;2023-05-07T07:45:13;93249.78;;;14.29;50.89
74336;BME280;62755;-33.398;-70.572;2023-05-07T07:48:03;93256.31;;;14.16;51.35
74336;BME280;62755;-33.398;-70.572;2023-05-07T07:50:52;93254.72;;;14.18;50.86
74336;BME280;62755;-33.398;-70.572;2023-05-07T07:53:44;93259.50;;;14.27;50.88
74336;BME280;62755;-33.398;-70.572;2023-05-07T07:56:33;93254.81;;;14.27;50.63
74336;BME280;62755;-33.398;-70.572;2023-05-07T07:59:23;93254.59;;;14.22;50.56
74336;BME280;62755;-33.398;-70.572;2023-05-07T08:02:12;93253.06;;;14.08;51.05
74336;BME280;62755;-33.398;-70.572;2023-05-07T08:05:02;93256.00;;;13.72;50.04
74336;BME280;62755;-33.398;-70.572;2023-05-07T08:07:51;93245.22;;;13.44;49.84
74336;BME280;62755;-33.398;-70.572;2023-05-07T08:10:42;93253.88;;;13.51;49.60
74336;BME280;62755;-33.398;-70.572;2023-05-07T08:13:32;93247.47;;;13.45;48.96
74336;BME280;62755;-33.398;-70.572;2023-05-07T08:16:21;93196.56;;;13.06;48.73
74336;BME280;62755;-33.398;-70.572;2023-05-07T08:19:10;93244.81;;;13.29;48.74
74336;BME280;62755;-33.398;-70.572;2023-05-07T08:22:00;93239.59;;;13.38;48.86
74336;BME280;62755;-33.398;-70.572;2023-05-07T08:24:49;93248.16;;;13.49;48.71
74336;BME280;62755;-33.398;-70.572;2023-05-07T08:27:42;93252.03;;;13.48;47.59
74336;BME280;62755;-33.398;-70.572;2023-05-07T08:30:31;93219.00;;;13.15;46.09
74336;BME280;62755;-33.398;-70.572;2023-05-07T08:33:22;93253.09;;;13.22;46.88
74336;BME280;62755;-33.398;-70.572;2023-05-07T08:36:11;93243.09;;;13.06;47.22
74336;BME280;62755;-33.398;-70.572;2023-05-07T08:39:01;93248.72;;;13.12;47.10
74336;BME280;62755;-33.398;-70.572;2023-05-07T08:41:52;93258.63;;;13.15;47.12
74336;BME280;62755;-33.398;-70.572;2023-05-07T08:44:46;93254.34;;;13.17;47.54
74336;BME280;62755;-33.398;-70.572;2023-05-07T08:47:42;93260.88;;;13.33;48.49
74336;BME280;62755;-33.398;-70.572;2023-05-07T08:50:31;93269.47;;;13.44;47.73
74336;BME280;62755;-33.398;-70.572;2023-05-07T08:53:24;93254.41;;;13.46;47.75
74336;BME280;62755;-33.398;-70.572;2023-05-07T08:56:14;93265.66;;;13.57;46.93
74336;BME280;62755;-33.398;-70.572;2023-05-07T08:59:03;93260.06;;;13.64;46.48
74336;BME280;62755;-33.398;-70.572;2023-05-07T09:01:55;93266.78;;;13.72;46.51
74336;BME280;62755;-33.398;-70.572;2023-05-07T09:04:44;93266.81;;;13.85;46.35
74336;BME280;62755;-33.398;-70.572;2023-05-07T09:07:33;93268.81;;;13.68;45.50
74336;BME280;62755;-33.398;-70.572;2023-05-07T09:10:23;93271.16;;;13.66;45.61
74336;BME280;62755;-33.398;-70.572;2023-05-07T09:13:12;93272.50;;;13.74;45.51
74336;BME280;62755;-33.398;-70.572;2023-05-07T09:16:11;93271.78;;;13.86;45.29
74336;BME280;62755;-33.398;-70.572;2023-05-07T09:19:02;93273.50;;;13.80;44.68
74336;BME280;62755;-33.398;-70.572;2023-05-07T09:21:58;93271.69;;;13.90;44.54
74336;BME280;62755;-33.398;-70.572;2023-05-07T09:24:49;93285.13;;;13.77;44.35
74336;BME280;62755;-33.398;-70.572;2023-05-07T09:27:38;93283.25;;;13.62;44.56
74336;BME280;62755;-33.398;-70.572;2023-05-07T09:30:29;93289.59;;;13.39;44.33
74336;BME280;62755;-33.398;-70.572;2023-05-07T09:33:18;93292.47;;;13.32;44.09
74336;BME280;62755;-33.398;-70.572;2023-05-07T09:36:10;93279.50;;;13.27;43.85
74336;BME280;62755;-33.398;-70.572;2023-05-07T09:39:00;93290.38;;;13.23;44.22
74336;BME280;62755;-33.398;-70.572;2023-05-07T09:41:50;93297.69;;;13.23;44.11
74336;BME280;62755;-33.398;-70.572;2023-05-07T09:44:41;93307.28;;;13.24;44.38
74336;BME280;62755;-33.398;-70.572;2023-05-07T09:47:33;93299.88;;;13.28;44.09
74336;BME280;62755;-33.398;-70.572;2023-05-07T09:50:27;93302.72;;;13.21;43.51
74336;BME280;62755;-33.398;-70.572;2023-05-07T09:53:19;93296.50;;;13.24;43.07
74336;BME280;62755;-33.398;-70.572;2023-05-07T09:56:09;93303.72;;;12.95;43.29
74336;BME280;62755;-33.398;-70.572;2023-05-07T09:59:00;93296.88;;;12.74;42.67
74336;BME280;62755;-33.398;-70.572;2023-05-07T10:01:52;93295.56;;;12.82;41.19
74336;BME280;62755;-33.398;-70.572;2023-05-07T10:04:42;93297.50;;;12.98;40.76
74336;BME280;62755;-33.398;-70.572;2023-05-07T10:07:32;93290.28;;;12.95;40.70
74336;BME280;62755;-33.398;-70.572;2023-05-07T10:10:24;93295.81;;;12.88;41.33
74336;BME280;62755;-33.398;-70.572;2023-05-07T10:13:13;93298.75;;;12.93;41.43
74336;BME280;62755;-33.398;-70.572;2023-05-07T10:16:04;93275.28;;;12.78;41.46
74336;BME280;62755;-33.398;-70.572;2023-05-07T10:18:55;93282.09;;;12.82;41.12
74336;BME280;62755;-33.398;-70.572;2023-05-07T10:21:51;93301.47;;;13.09;40.23
74336;BME280;62755;-33.398;-70.572;2023-05-07T10:24:45;93301.72;;;13.15;38.69
74336;BME280;62755;-33.398;-70.572;2023-05-07T10:27:39;93304.94;;;13.10;38.96
74336;BME280;62755;-33.398;-70.572;2023-05-07T10:30:38;93313.69;;;13.14;38.83
74336;BME280;62755;-33.398;-70.572;2023-05-07T10:33:29;93323.09;;;13.06;41.02
74336;BME280;62755;-33.398;-70.572;2023-05-07T10:36:21;93331.44;;;13.11;49.53
74336;BME280;62755;-33.398;-70.572;2023-05-07T10:39:10;93337.84;;;12.82;59.79
74336;BME280;62755;-33.398;-70.572;2023-05-07T10:42:08;93338.72;;;12.95;57.65
74336;BME280;62755;-33.398;-70.572;2023-05-07T10:45:12;93325.38;;;12.72;58.18
74336;BME280;62755;-33.398;-70.572;2023-05-07T10:48:11;93338.84;;;12.72;58.55
74336;BME280;62755;-33.398;-70.572;2023-05-07T10:51:19;93343.41;;;12.75;57.73
74336;BME280;62755;-33.398;-70.572;2023-05-07T10:54:22;93343.06;;;12.73;53.08
74336;BME280;62755;-33.398;-70.572;2023-05-07T10:57:33;93350.31;;;12.92;51.98
74336;BME280;62755;-33.398;-70.572;2023-05-07T11:00:43;93344.84;;;12.95;48.41
74336;BME280;62755;-33.398;-70.572;2023-05-07T11:03:32;93347.66;;;13.08;46.16
74336;BME280;62755;-33.398;-70.572;2023-05-07T11:06:22;93342.44;;;13.01;46.00
74336;BME280;62755;-33.398;-70.572;2023-05-07T11:09:11;93348.59;;;12.82;48.21
74336;BME280;62755;-33.398;-70.572;2023-05-07T11:12:01;93342.53;;;12.78;48.84
74336;BME280;62755;-33.398;-70.572;2023-05-07T11:14:50;93359.72;;;12.84;48.88
74336;BME280;62755;-33.398;-70.572;2023-05-07T11:17:55;93360.41;;;12.88;52.01
74336;BME280;62755;-33.398;-70.572;2023-05-07T11:20:49;93357.31;;;12.70;54.79
74336;BME280;62755;-33.398;-70.572;2023-05-07T11:23:59;93369.22;;;12.53;52.07
74336;BME280;62755;-33.398;-70.572;2023-05-07T11:26:49;93368.19;;;12.47;51.51
74336;BME280;62755;-33.398;-70.572;2023-05-07T11:29:39;93369.31;;;12.29;53.77
74336;BME280;62755;-33.398;-70.572;2023-05-07T11:32:29;93348.97;;;12.28;53.04
74336;BME280;62755;-33.398;-70.572;2023-05-07T11:35:23;93373.38;;;12.38;53.40
74336;BME280;62755;-33.398;-70.572;2023-05-07T11:38:13;93376.47;;;12.56;52.22
74336;BME280;62755;-33.398;-70.572;2023-05-07T11:41:04;93373.97;;;12.65;52.58
74336;BME280;62755;-33.398;-70.572;2023-05-07T11:43:57;93373.28;;;12.61;54.67
74336;BME280;62755;-33.398;-70.572;2023-05-07T11:46:47;93372.16;;;12.78;52.93
74336;BME280;62755;-33.398;-70.572;2023-05-07T11:49:37;93367.69;;;12.71;55.61
74336;BME280;62755;-33.398;-70.572;2023-05-07T11:52:29;93358.47;;;12.53;55.75
74336;BME280;62755;-33.398;-70.572;2023-05-07T11:55:19;93355.69;;;12.56;56.30
74336;BME280;62755;-33.398;-70.572;2023-05-07T11:58:11;93348.22;;;12.48;54.08
74336;BME280;62755;-33.398;-70.572;2023-05-07T12:01:01;93368.00;;;12.57;53.34
74336;BME280;62755;-33.398;-70.572;2023-05-07T12:03:51;93358.81;;;12.55;54.06
74336;BME280;62755;-33.398;-70.572;2023-05-07T12:06:40;93365.09;;;12.48;53.61
74336;BME280;62755;-33.398;-70.572;2023-05-07T12:09:33;93368.44;;;12.72;53.84
74336;BME280;62755;-33.398;-70.572;2023-05-07T12:12:22;93368.47;;;12.88;52.66
74336;BME280;62755;-33.398;-70.572;2023-05-07T12:15:13;93368.00;;;12.93;50.18
74336;BME280;62755;-33.398;-70.572;2023-05-07T12:18:04;93376.72;;;12.81;48.25
74336;BME280;62755;-33.398;-70.572;2023-05-07T12:20:54;93371.97;;;12.69;48.02
74336;BME280;62755;-33.398;-70.572;2023-05-07T12:23:43;93369.78;;;12.80;44.18
74336;BME280;62755;-33.398;-70.572;2023-05-07T12:26:38;93369.66;;;12.87;42.38
74336;BME280;62755;-33.398;-70.572;2023-05-07T12:29:28;93370.66;;;13.12;41.19
74336;BME280;62755;-33.398;-70.572;2023-05-07T12:32:18;93365.25;;;13.12;40.09
74336;BME280;62755;-33.398;-70.572;2023-05-07T12:35:08;93340.22;;;12.96;40.02
74336;BME280;62755;-33.398;-70.572;2023-05-07T12:37:58;93373.75;;;13.11;41.90
74336;BME280;62755;-33.398;-70.572;2023-05-07T12:40:53;93371.75;;;13.31;41.31
74336;BME280;62755;-33.398;-70.572;2023-05-07T12:43:46;93375.34;;;13.41;40.47
74336;BME280;62755;-33.398;-70.572;2023-05-07T12:46:39;93368.84;;;13.54;40.41
74336;BME280;62755;-33.398;-70.572;2023-05-07T12:49:29;93378.47;;;13.71;41.59
74336;BME280;62755;-33.398;-70.572;2023-05-07T12:52:18;93386.97;;;13.70;43.60
74336;BME280;62755;-33.398;-70.572;2023-05-07T12:55:09;93387.22;;;13.75;44.15
74336;BME280;62755;-33.398;-70.572;2023-05-07T12:58:01;93391.94;;;13.87;42.95
74336;BME280;62755;-33.398;-70.572;2023-05-07T13:00:53;93388.03;;;13.88;42.61
74336;BME280;62755;-33.398;-70.572;2023-05-07T13:03:48;93394.75;;;13.96;41.38
74336;BME280;62755;-33.398;-70.572;2023-05-07T13:06:38;93394.41;;;14.10;39.13
74336;BME280;62755;-33.398;-70.572;2023-05-07T13:09:28;93392.69;;;14.17;39.45
74336;BME280;62755;-33.398;-70.572;2023-05-07T13:12:17;93393.84;;;14.32;39.56
74336;BME280;62755;-33.398;-70.572;2023-05-07T13:15:07;93390.16;;;14.54;38.10
74336;BME280;62755;-33.398;-70.572;2023-05-07T13:17:59;93398.25;;;14.67;37.21
74336;BME280;62755;-33.398;-70.572;2023-05-07T13:20:49;93394.09;;;14.91;36.88
74336;BME280;62755;-33.398;-70.572;2023-05-07T13:23:38;93408.13;;;14.86;37.00
74336;BME280;62755;-33.398;-70.572;2023-05-07T13:26:28;93397.47;;;15.45;36.09
74336;BME280;62755;-33.398;-70.572;2023-05-07T13:29:17;93400.25;;;15.79;35.42
74336;BME280;62755;-33.398;-70.572;2023-05-07T13:32:06;93400.50;;;16.41;34.76
74336;BME280;62755;-33.398;-70.572;2023-05-07T13:34:57;93389.78;;;17.42;33.99
74336;BME280;62755;-33.398;-70.572;2023-05-07T13:37:47;93398.19;;;17.66;33.21
74336;BME280;62755;-33.398;-70.572;2023-05-07T13:40:36;93398.94;;;18.60;32.47
74336;BME280;62755;-33.398;-70.572;2023-05-07T13:43:26;93402.28;;;19.24;31.08
74336;BME280;62755;-33.398;-70.572;2023-05-07T13:46:15;93385.97;;;20.22;30.43
74336;BME280;62755;-33.398;-70.572;2023-05-07T13:49:04;93389.94;;;20.88;29.76
74336;BME280;62755;-33.398;-70.572;2023-05-07T13:51:56;93389.72;;;21.01;30.19
74336;BME280;62755;-33.398;-70.572;2023-05-07T13:54:45;93387.56;;;21.69;29.64
74336;BME280;62755;-33.398;-70.572;2023-05-07T13:57:34;93384.53;;;22.16;29.02
74336;BME280;62755;-33.398;-70.572;2023-05-07T14:00:24;93392.81;;;22.62;28.01
74336;BME280;62755;-33.398;-70.572;2023-05-07T14:03:13;93384.16;;;22.89;27.57
74336;BME280;62755;-33.398;-70.572;2023-05-07T14:06:04;93379.06;;;23.59;26.35
74336;BME280;62755;-33.398;-70.572;2023-05-07T14:08:55;93372.22;;;24.11;25.57
74336;BME280;62755;-33.398;-70.572;2023-05-07T14:11:44;93370.16;;;23.33;25.45
74336;BME280;62755;-33.398;-70.572;2023-05-07T14:14:38;93369.31;;;22.96;25.59
74336;BME280;62755;-33.398;-70.572;2023-05-07T14:17:27;93369.44;;;23.69;24.96
74336;BME280;62755;-33.398;-70.572;2023-05-07T14:20:16;93369.53;;;24.28;23.88
74336;BME280;62755;-33.398;-70.572;2023-05-07T14:23:06;93363.31;;;24.86;22.89
74336;BME280;62755;-33.398;-70.572;2023-05-07T14:25:57;93360.59;;;25.36;22.35
74336;BME280;62755;-33.398;-70.572;2023-05-07T14:28:46;93368.38;;;25.43;22.66